sensor_id;sensor_type;location;lat;lon;timestamp;P1;durP1;ratioP1;P2;durP2;ratioP2
38224;SDS011;24025;48.138;11.428;2024-02-28T00:00:34;16.00;;;9.30;;
38224;SDS011;24025;48.138;11.428;2024-02-28T00:03:05;19.13;;;10.27;;
38224;SDS011;24025;48.138;11.428;2024-02-28T00:05:37;17.73;;;9.75;;
38224;SDS011;24025;48.138;11.428;2024-02-28T00:08:09;22.63;;;10.52;;
38224;SDS011;24025;48.138;11.428;2024-02-28T00:10:40;17.35;;;10.25;;
38224;SDS011;24025;48.138;11.428;2024-02-28T00:13:12;16.88;;;9.90;;
38224;SDS011;24025;48.138;11.428;2024-02-28T00:15:45;18.23;;;10.15;;
38224;SDS011;24025;48.138;11.428;2024-02-28T00:18:17;18.70;;;10.25;;
38224;SDS011;24025;48.138;11.428;2024-02-28T00:20:49;18.77;;;9.93;;
38224;SDS011;24025;48.138;11.428;2024-02-28T00:23:20;20.42;;;10.15;;
38224;SDS011;24025;48.138;11.428;2024-02-28T00:25:52;20.73;;;11.00;;
38224;SDS011;24025;48.138;11.428;2024-02-28T00:28:24;20.98;;;10.45;;
38224;SDS011;24025;48.138;11.428;2024-02-28T00:30:55;16.83;;;9.82;;
38224;SDS011;24025;48.138;11.428;2024-02-28T00:33:27;17.10;;;10.40;;
38224;SDS011;24025;48.138;11.428;2024-02-28T00:35:59;23.95;;;11.65;;
38224;SDS011;24025;48.138;11.428;2024-02-28T00:38:30;24.63;;;12.27;;
38224;SDS011;24025;48.138;11.428;2024-02-28T00:41:02;24.60;;;12.52;;
38224;SDS011;24025;48.138;11.428;2024-02-28T00:43:34;21.35;;;12.15;;
38224;SDS011;24025;48.138;11.428;2024-02-28T00:46:05;20.65;;;11.27;;
38224;SDS011;24025;48.138;11.428;2024-02-28T00:48:42;21.65;;;11.40;;
38224;SDS011;24025;48.138;11.428;2024-02-28T00:51:14;21.83;;;11.40;;
38224;SDS011;24025;48.138;11.428;2024-02-28T00:53:45;20.17;;;11.88;;
38224;SDS011;24025;48.138;11.428;2024-02-28T00:56:17;21.87;;;10.73;;
38224;SDS011;24025;48.138;11.428;2024-02-28T00:58:48;18.85;;;11.15;;
38224;SDS011;24025;48.138;11.428;2024-02-28T01:01:20;21.55;;;11.70;;
38224;SDS011;24025;48.138;11.428;2024-02-28T01:03:52;21.25;;;11.32;;
38224;SDS011;24025;48.138;11.428;2024-02-28T01:06:24;18.00;;;10.82;;
38224;SDS011;24025;48.138;11.428;2024-02-28T01:08:55;26.30;;;11.98;;
38224;SDS011;24025;48.138;11.428;2024-02-28T01:11:27;21.05;;;11.95;;
38224;SDS011;24025;48.138;11.428;2024-02-28T01:13:59;20.30;;;11.23;;
38224;SDS011;24025;48.138;11.428;2024-02-28T01:16:31;19.90;;;10.43;;
38224;SDS011;24025;48.138;11.428;2024-02-28T01:19:02;17.70;;;9.98;;
38224;SDS011;24025;48.138;11.428;2024-02-28T01:21:34;18.38;;;10.13;;
38224;SDS011;24025;48.138;11.428;2024-02-28T01:24:06;17.95;;;9.98;;
38224;SDS011;24025;48.138;11.428;2024-02-28T01:26:37;20.63;;;9.93;;
38224;SDS011;24025;48.138;11.428;2024-02-28T01:29:09;17.48;;;10.57;;
38224;SDS011;24025;48.138;11.428;2024-02-28T01:31:41;18.50;;;10.25;;
38224;SDS011;24025;48.138;11.428;2024-02-28T01:34:12;19.77;;;11.27;;
38224;SDS011;24025;48.138;11.428;2024-02-28T01:36:44;19.53;;;10.10;;
38224;SDS011;24025;48.138;11.428;2024-02-28T01:39:16;20.20;;;10.43;;
38224;SDS011;24025;48.138;11.428;2024-02-28T01:41:51;25.13;;;10.65;;
38224;SDS011;24025;48.138;11.428;2024-02-28T01:44:24;19.67;;;10.18;;
38224;SDS011;24025;48.138;11.428;2024-02-28T01:46:56;18.10;;;10.57;;
38224;SDS011;24025;48.138;11.428;2024-02-28T01:49:29;18.40;;;10.02;;
38224;SDS011;24025;48.138;11.428;2024-02-28T01:52:01;23.80;;;10.88;;
38224;SDS011;24025;48.138;11.428;2024-02-28T01:54:34;21.02;;;11.05;;
38224;SDS011;24025;48.138;11.428;2024-02-28T01:57:06;19.85;;;9.93;;
38224;SDS011;24025;48.138;11.428;2024-02-28T01:59:38;22.15;;;11.25;;
38224;SDS011;24025;48.138;11.428;2024-02-28T02:02:11;20.15;;;10.20;;
38224;SDS011;24025;48.138;11.428;2024-02-28T02:04:42;20.00;;;10.65;;
38224;SDS011;24025;48.138;11.428;2024-02-28T02:07:14;19.50;;;10.85;;
38224;SDS011;24025;48.138;11.428;2024-02-28T02:09:45;18.63;;;10.23;;
38224;SDS011;24025;48.138;11.428;2024-02-28T02:12:17;19.35;;;11.23;;
38224;SDS011;24025;48.138;11.428;2024-02-28T02:14:49;21.58;;;10.70;;
38224;SDS011;24025;48.138;11.428;2024-02-28T02:17:21;21.45;;;12.13;;
38224;SDS011;24025;48.138;11.428;2024-02-28T02:19:52;22.23;;;12.27;;
38224;SDS011;24025;48.138;11.428;2024-02-28T02:22:25;26.80;;;13.32;;
38224;SDS011;24025;48.138;11.428;2024-02-28T02:25:02;24.42;;;12.63;;
38224;SDS011;24025;48.138;11.428;2024-02-28T02:27:34;24.92;;;12.70;;
38224;SDS011;24025;48.138;11.428;2024-02-28T02:30:06;27.27;;;13.38;;
38224;SDS011;24025;48.138;11.428;2024-02-28T02:32:38;27.42;;;13.88;;
38224;SDS011;24025;48.138;11.428;2024-02-28T02:35:09;24.65;;;13.48;;
38224;SDS011;24025;48.138;11.428;2024-02-28T02:37:44;23.40;;;13.10;;
38224;SDS011;24025;48.138;11.428;2024-02-28T02:40:19;27.60;;;13.95;;
38224;SDS011;24025;48.138;11.428;2024-02-28T02:42:51;22.30;;;12.63;;
38224;SDS011;24025;48.138;11.428;2024-02-28T02:45:23;23.17;;;13.00;;
38224;SDS011;24025;48.138;11.428;2024-02-28T02:47:54;28.42;;;14.77;;
38224;SDS011;24025;48.138;11.428;2024-02-28T02:50:26;27.42;;;14.07;;
38224;SDS011;24025;48.138;11.428;2024-02-28T02:52:58;32.17;;;14.13;;
38224;SDS011;24025;48.138;11.428;2024-02-28T02:55:29;30.17;;;14.47;;
38224;SDS011;24025;48.138;11.428;2024-02-28T02:58:01;28.63;;;14.35;;
38224;SDS011;24025;48.138;11.428;2024-02-28T03:00:33;27.50;;;13.65;;
38224;SDS011;24025;48.138;11.428;2024-02-28T03:03:05;25.02;;;13.73;;
38224;SDS011;24025;48.138;11.428;2024-02-28T03:05:37;31.20;;;14.18;;
38224;SDS011;24025;48.138;11.428;2024-02-28T03:08:08;26.85;;;13.73;;
38224;SDS011;24025;48.138;11.428;2024-02-28T03:10:40;28.85;;;14.77;;
38224;SDS011;24025;48.138;11.428;2024-02-28T03:13:12;33.00;;;15.57;;
38224;SDS011;24025;48.138;11.428;2024-02-28T03:15:43;27.00;;;14.90;;
38224;SDS011;24025;48.138;11.428;2024-02-28T03:18:15;26.88;;;14.52;;
38224;SDS011;24025;48.138;11.428;2024-02-28T03:23:19;27.90;;;14.85;;
38224;SDS011;24025;48.138;11.428;2024-02-28T03:25:50;28.40;;;14.77;;
38224;SDS011;24025;48.138;11.428;2024-02-28T03:28:22;33.58;;;15.80;;
38224;SDS011;24025;48.138;11.428;2024-02-28T03:30:54;32.03;;;15.80;;
38224;SDS011;24025;48.138;11.428;2024-02-28T03:33:25;32.03;;;14.70;;
38224;SDS011;24025;48.138;11.428;2024-02-28T03:35:57;32.20;;;14.80;;
38224;SDS011;24025;48.138;11.428;2024-02-28T03:38:28;29.38;;;14.93;;
38224;SDS011;24025;48.138;11.428;2024-02-28T03:41:01;27.65;;;14.88;;
38224;SDS011;24025;48.138;11.428;2024-02-28T03:43:33;27.55;;;14.93;;
38224;SDS011;24025;48.138;11.428;2024-02-28T03:46:05;26.38;;;14.43;;
38224;SDS011;24025;48.138;11.428;2024-02-28T03:48:37;29.95;;;14.30;;
38224;SDS011;24025;48.138;11.428;2024-02-28T03:51:08;27.88;;;15.18;;
38224;SDS011;24025;48.138;11.428;2024-02-28T03:53:40;35.40;;;16.10;;
38224;SDS011;24025;48.138;11.428;2024-02-28T03:56:12;34.33;;;16.55;;
38224;SDS011;24025;48.138;11.428;2024-02-28T03:58:44;25.42;;;14.48;;
38224;SDS011;24025;48.138;11.428;2024-02-28T04:01:16;28.95;;;14.93;;
38224;SDS011;24025;48.138;11.428;2024-02-28T04:03:47;30.58;;;15.02;;
38224;SDS011;24025;48.138;11.428;2024-02-28T04:06:19;33.80;;;16.20;;
38224;SDS011;24025;48.138;11.428;2024-02-28T04:08:51;31.33;;;14.38;;
38224;SDS011;24025;48.138;11.428;2024-02-28T04:11:23;31.40;;;16.43;;
38224;SDS011;24025;48.138;11.428;2024-02-28T04:13:55;31.45;;;16.15;;
38224;SDS011;24025;48.138;11.428;2024-02-28T04:16:26;34.17;;;15.95;;
38224;SDS011;24025;48.138;11.428;2024-02-28T04:18:58;27.77;;;14.68;;
38224;SDS011;24025;48.138;11.428;2024-02-28T04:21:30;32.03;;;16.27;;
38224;SDS011;24025;48.138;11.428;2024-02-28T04:24:01;33.83;;;16.10;;
38224;SDS011;24025;48.138;11.428;2024-02-28T04:26:33;28.63;;;15.35;;
38224;SDS011;24025;48.138;11.428;2024-02-28T04:29:05;28.15;;;14.70;;
38224;SDS011;24025;48.138;11.428;2024-02-28T04:31:39;30.55;;;15.65;;
38224;SDS011;24025;48.138;11.428;2024-02-28T04:34:10;35.95;;;16.90;;
38224;SDS011;24025;48.138;11.428;2024-02-28T04:36:42;39.97;;;16.97;;
38224;SDS011;24025;48.138;11.428;2024-02-28T04:39:13;29.50;;;15.23;;
38224;SDS011;24025;48.138;11.428;2024-02-28T04:41:45;32.78;;;17.23;;
38224;SDS011;24025;48.138;11.428;2024-02-28T04:44:17;39.50;;;16.77;;
38224;SDS011;24025;48.138;11.428;2024-02-28T04:46:48;28.88;;;15.15;;
38224;SDS011;24025;48.138;11.428;2024-02-28T04:49:20;33.40;;;16.10;;
38224;SDS011;24025;48.138;11.428;2024-02-28T04:51:52;32.80;;;15.43;;
38224;SDS011;24025;48.138;11.428;2024-02-28T04:54:24;29.73;;;16.33;;
38224;SDS011;24025;48.138;11.428;2024-02-28T04:56:56;34.03;;;16.52;;
38224;SDS011;24025;48.138;11.428;2024-02-28T04:59:27;30.45;;;15.40;;
38224;SDS011;24025;48.138;11.428;2024-02-28T05:01:59;35.88;;;16.83;;
38224;SDS011;24025;48.138;11.428;2024-02-28T05:04:30;30.92;;;15.32;;
38224;SDS011;24025;48.138;11.428;2024-02-28T05:07:02;35.53;;;16.75;;
38224;SDS011;24025;48.138;11.428;2024-02-28T05:12:06;30.50;;;15.15;;
38224;SDS011;24025;48.138;11.428;2024-02-28T05:17:10;29.13;;;15.02;;
38224;SDS011;24025;48.138;11.428;2024-02-28T05:19:42;32.13;;;16.20;;
38224;SDS011;24025;48.138;11.428;2024-02-28T05:22:14;36.42;;;17.08;;
38224;SDS011;24025;48.138;11.428;2024-02-28T05:24:46;39.42;;;16.92;;
38224;SDS011;24025;48.138;11.428;2024-02-28T05:27:18;34.65;;;17.73;;
38224;SDS011;24025;48.138;11.428;2024-02-28T05:29:49;29.85;;;15.88;;
38224;SDS011;24025;48.138;11.428;2024-02-28T05:32:21;35.78;;;17.33;;
38224;SDS011;24025;48.138;11.428;2024-02-28T05:34:53;33.50;;;18.33;;
38224;SDS011;24025;48.138;11.428;2024-02-28T05:37:24;31.05;;;16.08;;
38224;SDS011;24025;48.138;11.428;2024-02-28T05:39:56;33.15;;;16.45;;
38224;SDS011;24025;48.138;11.428;2024-02-28T05:42:27;31.10;;;16.52;;
38224;SDS011;24025;48.138;11.428;2024-02-28T05:44:59;35.60;;;17.20;;
38224;SDS011;24025;48.138;11.428;2024-02-28T05:47:31;36.97;;;18.40;;
38224;SDS011;24025;48.138;11.428;2024-02-28T05:50:03;35.25;;;15.82;;
38224;SDS011;24025;48.138;11.428;2024-02-28T05:52:36;38.83;;;17.52;;
38224;SDS011;24025;48.138;11.428;2024-02-28T05:55:08;31.23;;;16.33;;
38224;SDS011;24025;48.138;11.428;2024-02-28T05:57:40;35.83;;;18.10;;
38224;SDS011;24025;48.138;11.428;2024-02-28T06:00:12;33.00;;;16.73;;
38224;SDS011;24025;48.138;11.428;2024-02-28T06:02:45;33.85;;;17.23;;
38224;SDS011;24025;48.138;11.428;2024-02-28T06:05:17;36.30;;;17.53;;
38224;SDS011;24025;48.138;11.428;2024-02-28T06:07:48;35.55;;;17.67;;
38224;SDS011;24025;48.138;11.428;2024-02-28T06:10:20;29.60;;;17.33;;
38224;SDS011;24025;48.138;11.428;2024-02-28T06:12:52;35.05;;;17.58;;
38224;SDS011;24025;48.138;11.428;2024-02-28T06:15:24;34.92;;;17.90;;
38224;SDS011;24025;48.138;11.428;2024-02-28T06:17:58;34.17;;;17.02;;
38224;SDS011;24025;48.138;11.428;2024-02-28T06:20:33;33.85;;;16.75;;
38224;SDS011;24025;48.138;11.428;2024-02-28T06:23:05;39.35;;;17.90;;
38224;SDS011;24025;48.138;11.428;2024-02-28T06:25:46;36.38;;;17.50;;
38224;SDS011;24025;48.138;11.428;2024-02-28T06:28:18;35.97;;;17.85;;
38224;SDS011;24025;48.138;11.428;2024-02-28T06:30:49;36.78;;;18.23;;
38224;SDS011;24025;48.138;11.428;2024-02-28T06:33:21;30.23;;;16.48;;
38224;SDS011;24025;48.138;11.428;2024-02-28T06:35:53;34.50;;;16.98;;
38224;SDS011;24025;48.138;11.428;2024-02-28T06:38:24;33.72;;;17.58;;
38224;SDS011;24025;48.138;11.428;2024-02-28T06:40:57;34.88;;;17.95;;
38224;SDS011;24025;48.138;11.428;2024-02-28T06:43:28;34.75;;;17.05;;
38224;SDS011;24025;48.138;11.428;2024-02-28T06:46:00;36.87;;;18.70;;
38224;SDS011;24025;48.138;11.428;2024-02-28T06:48:32;34.72;;;16.70;;
38224;SDS011;24025;48.138;11.428;2024-02-28T06:51:04;32.40;;;17.33;;
38224;SDS011;24025;48.138;11.428;2024-02-28T06:53:36;33.75;;;17.15;;
38224;SDS011;24025;48.138;11.428;2024-02-28T06:56:07;37.03;;;17.53;;
38224;SDS011;24025;48.138;11.428;2024-02-28T06:58:39;33.53;;;17.65;;
38224;SDS011;24025;48.138;11.428;2024-02-28T07:01:10;38.67;;;18.50;;
38224;SDS011;24025;48.138;11.428;2024-02-28T07:03:42;38.67;;;19.10;;
38224;SDS011;24025;48.138;11.428;2024-02-28T07:06:14;33.28;;;17.90;;
38224;SDS011;24025;48.138;11.428;2024-02-28T07:08:46;37.83;;;19.23;;
38224;SDS011;24025;48.138;11.428;2024-02-28T07:11:17;39.78;;;18.08;;
38224;SDS011;24025;48.138;11.428;2024-02-28T07:13:49;39.90;;;18.95;;
38224;SDS011;24025;48.138;11.428;2024-02-28T07:16:20;46.13;;;20.27;;
38224;SDS011;24025;48.138;11.428;2024-02-28T07:18:52;43.28;;;18.67;;
38224;SDS011;24025;48.138;11.428;2024-02-28T07:21:24;43.33;;;19.57;;
38224;SDS011;24025;48.138;11.428;2024-02-28T07:23:55;40.38;;;19.38;;
38224;SDS011;24025;48.138;11.428;2024-02-28T07:26:27;45.05;;;19.38;;
38224;SDS011;24025;48.138;11.428;2024-02-28T07:28:59;39.88;;;18.27;;
38224;SDS011;24025;48.138;11.428;2024-02-28T07:31:30;37.43;;;18.93;;
38224;SDS011;24025;48.138;11.428;2024-02-28T07:34:02;46.22;;;21.00;;
38224;SDS011;24025;48.138;11.428;2024-02-28T07:36:34;47.25;;;19.60;;
38224;SDS011;24025;48.138;11.428;2024-02-28T07:39:05;49.58;;;21.25;;
38224;SDS011;24025;48.138;11.428;2024-02-28T07:41:37;50.67;;;21.15;;
38224;SDS011;24025;48.138;11.428;2024-02-28T07:44:08;43.60;;;18.92;;
38224;SDS011;24025;48.138;11.428;2024-02-28T07:46:41;48.63;;;21.67;;
38224;SDS011;24025;48.138;11.428;2024-02-28T07:51:45;45.95;;;18.80;;
38224;SDS011;24025;48.138;11.428;2024-02-28T07:54:17;46.53;;;19.58;;
38224;SDS011;24025;48.138;11.428;2024-02-28T07:56:48;48.42;;;19.60;;
38224;SDS011;24025;48.138;11.428;2024-02-28T07:59:20;45.83;;;21.95;;
38224;SDS011;24025;48.138;11.428;2024-02-28T08:01:52;44.95;;;21.77;;
38224;SDS011;24025;48.138;11.428;2024-02-28T08:06:56;53.35;;;21.17;;
38224;SDS011;24025;48.138;11.428;2024-02-28T08:09:28;54.50;;;22.33;;
38224;SDS011;24025;48.138;11.428;2024-02-28T08:11:59;53.55;;;22.95;;
38224;SDS011;24025;48.138;11.428;2024-02-28T08:14:31;51.38;;;23.08;;
38224;SDS011;24025;48.138;11.428;2024-02-28T08:17:02;57.42;;;23.70;;
38224;SDS011;24025;48.138;11.428;2024-02-28T08:19:34;51.63;;;22.20;;
38224;SDS011;24025;48.138;11.428;2024-02-28T08:22:06;47.40;;;21.90;;
38224;SDS011;24025;48.138;11.428;2024-02-28T08:24:38;48.60;;;22.40;;
38224;SDS011;24025;48.138;11.428;2024-02-28T08:27:10;53.03;;;23.15;;
38224;SDS011;24025;48.138;11.428;2024-02-28T08:29:41;47.07;;;21.20;;
38224;SDS011;24025;48.138;11.428;2024-02-28T08:32:15;55.95;;;22.73;;
38224;SDS011;24025;48.138;11.428;2024-02-28T08:34:47;44.53;;;21.23;;
38224;SDS011;24025;48.138;11.428;2024-02-28T08:37:18;50.80;;;23.35;;
38224;SDS011;24025;48.138;11.428;2024-02-28T08:39:50;55.40;;;23.38;;
38224;SDS011;24025;48.138;11.428;2024-02-28T08:42:22;57.10;;;23.90;;
38224;SDS011;24025;48.138;11.428;2024-02-28T08:44:53;57.15;;;23.98;;
38224;SDS011;24025;48.138;11.428;2024-02-28T08:47:29;53.72;;;24.45;;
38224;SDS011;24025;48.138;11.428;2024-02-28T08:50:01;47.13;;;22.90;;
38224;SDS011;24025;48.138;11.428;2024-02-28T08:52:33;61.47;;;25.50;;
38224;SDS011;24025;48.138;11.428;2024-02-28T08:55:04;54.87;;;24.13;;
38224;SDS011;24025;48.138;11.428;2024-02-28T08:57:36;65.35;;;24.10;;
38224;SDS011;24025;48.138;11.428;2024-02-28T09:00:08;50.15;;;24.67;;
38224;SDS011;24025;48.138;11.428;2024-02-28T09:02:41;53.38;;;23.00;;
38224;SDS011;24025;48.138;11.428;2024-02-28T09:05:12;57.13;;;24.73;;
38224;SDS011;24025;48.138;11.428;2024-02-28T09:07:44;49.15;;;23.40;;
38224;SDS011;24025;48.138;11.428;2024-02-28T09:10:17;49.67;;;22.52;;
38224;SDS011;24025;48.138;11.428;2024-02-28T09:12:55;51.03;;;22.58;;
38224;SDS011;24025;48.138;11.428;2024-02-28T09:15:26;53.42;;;24.23;;
38224;SDS011;24025;48.138;11.428;2024-02-28T09:17:58;54.85;;;23.35;;
38224;SDS011;24025;48.138;11.428;2024-02-28T09:20:30;59.55;;;23.90;;
38224;SDS011;24025;48.138;11.428;2024-02-28T09:23:02;52.88;;;25.05;;
38224;SDS011;24025;48.138;11.428;2024-02-28T09:25:33;51.20;;;23.17;;
38224;SDS011;24025;48.138;11.428;2024-02-28T09:28:06;51.50;;;23.13;;
38224;SDS011;24025;48.138;11.428;2024-02-28T09:30:38;49.88;;;22.48;;
38224;SDS011;24025;48.138;11.428;2024-02-28T09:33:22;44.97;;;22.65;;
38224;SDS011;24025;48.138;11.428;2024-02-28T09:35:54;51.92;;;22.83;;
38224;SDS011;24025;48.138;11.428;2024-02-28T09:38:25;48.50;;;22.83;;
38224;SDS011;24025;48.138;11.428;2024-02-28T09:40:57;45.70;;;21.80;;
38224;SDS011;24025;48.138;11.428;2024-02-28T09:43:30;51.15;;;24.45;;
38224;SDS011;24025;48.138;11.428;2024-02-28T09:46:11;41.08;;;20.35;;
38224;SDS011;24025;48.138;11.428;2024-02-28T09:48:44;49.83;;;22.67;;
38224;SDS011;24025;48.138;11.428;2024-02-28T09:51:21;50.58;;;22.27;;
38224;SDS011;24025;48.138;11.428;2024-02-28T09:56:24;51.40;;;22.73;;
38224;SDS011;24025;48.138;11.428;2024-02-28T09:58:56;59.28;;;26.00;;
38224;SDS011;24025;48.138;11.428;2024-02-28T10:04:00;49.97;;;21.92;;
38224;SDS011;24025;48.138;11.428;2024-02-28T10:06:33;57.83;;;24.10;;
38224;SDS011;24025;48.138;11.428;2024-02-28T10:09:05;55.53;;;24.73;;
38224;SDS011;24025;48.138;11.428;2024-02-28T10:11:36;51.60;;;22.90;;
38224;SDS011;24025;48.138;11.428;2024-02-28T10:14:09;49.13;;;21.60;;
38224;SDS011;24025;48.138;11.428;2024-02-28T10:16:41;52.25;;;22.83;;
38224;SDS011;24025;48.138;11.428;2024-02-28T10:19:13;45.65;;;21.30;;
38224;SDS011;24025;48.138;11.428;2024-02-28T10:21:45;42.58;;;21.00;;
38224;SDS011;24025;48.138;11.428;2024-02-28T10:24:17;48.70;;;22.73;;
38224;SDS011;24025;48.138;11.428;2024-02-28T10:26:49;50.60;;;23.50;;
38224;SDS011;24025;48.138;11.428;2024-02-28T10:29:26;43.25;;;20.48;;
38224;SDS011;24025;48.138;11.428;2024-02-28T10:31:59;53.38;;;21.90;;
38224;SDS011;24025;48.138;11.428;2024-02-28T10:34:31;44.33;;;21.30;;
38224;SDS011;24025;48.138;11.428;2024-02-28T10:37:05;49.70;;;22.40;;
38224;SDS011;24025;48.138;11.428;2024-02-28T10:42:09;40.45;;;20.75;;
38224;SDS011;24025;48.138;11.428;2024-02-28T10:44:43;49.45;;;21.40;;
38224;SDS011;24025;48.138;11.428;2024-02-28T10:47:15;49.88;;;20.95;;
38224;SDS011;24025;48.138;11.428;2024-02-28T10:49:47;46.10;;;20.98;;
38224;SDS011;24025;48.138;11.428;2024-02-28T10:52:19;41.63;;;21.10;;
38224;SDS011;24025;48.138;11.428;2024-02-28T10:54:54;46.10;;;21.35;;
38224;SDS011;24025;48.138;11.428;2024-02-28T10:57:27;47.25;;;21.88;;
38224;SDS011;24025;48.138;11.428;2024-02-28T11:00:02;47.53;;;21.58;;
38224;SDS011;24025;48.138;11.428;2024-02-28T11:02:36;50.05;;;21.40;;
38224;SDS011;24025;48.138;11.428;2024-02-28T11:05:08;47.15;;;21.42;;
38224;SDS011;24025;48.138;11.428;2024-02-28T11:07:41;43.70;;;21.00;;
38224;SDS011;24025;48.138;11.428;2024-02-28T11:10:13;44.88;;;20.85;;
38224;SDS011;24025;48.138;11.428;2024-02-28T11:12:54;48.22;;;22.40;;
38224;SDS011;24025;48.138;11.428;2024-02-28T11:15:26;43.15;;;21.48;;
38224;SDS011;24025;48.138;11.428;2024-02-28T11:18:07;46.40;;;22.08;;
38224;SDS011;24025;48.138;11.428;2024-02-28T11:20:40;42.45;;;20.35;;
38224;SDS011;24025;48.138;11.428;2024-02-28T11:23:14;52.90;;;22.98;;
38224;SDS011;24025;48.138;11.428;2024-02-28T11:25:48;47.88;;;21.27;;
38224;SDS011;24025;48.138;11.428;2024-02-28T11:28:19;47.33;;;21.02;;
38224;SDS011;24025;48.138;11.428;2024-02-28T11:30:55;51.25;;;22.38;;
38224;SDS011;24025;48.138;11.428;2024-02-28T11:33:27;50.15;;;21.73;;
38224;SDS011;24025;48.138;11.428;2024-02-28T11:35:59;54.67;;;23.02;;
38224;SDS011;24025;48.138;11.428;2024-02-28T11:38:31;48.05;;;21.63;;
38224;SDS011;24025;48.138;11.428;2024-02-28T11:41:03;48.97;;;22.33;;
38224;SDS011;24025;48.138;11.428;2024-02-28T11:43:35;47.10;;;21.55;;
38224;SDS011;24025;48.138;11.428;2024-02-28T11:46:22;47.85;;;20.15;;
38224;SDS011;24025;48.138;11.428;2024-02-28T11:48:55;48.80;;;23.05;;
38224;SDS011;24025;48.138;11.428;2024-02-28T11:51:27;43.40;;;21.25;;
38224;SDS011;24025;48.138;11.428;2024-02-28T11:54:03;53.03;;;23.05;;
38224;SDS011;24025;48.138;11.428;2024-02-28T11:56:35;48.95;;;22.05;;
38224;SDS011;24025;48.138;11.428;2024-02-28T11:59:08;50.78;;;23.38;;
38224;SDS011;24025;48.138;11.428;2024-02-28T12:01:42;47.80;;;21.05;;
38224;SDS011;24025;48.138;11.428;2024-02-28T12:04:18;46.60;;;22.08;;
38224;SDS011;24025;48.138;11.428;2024-02-28T12:06:49;42.67;;;21.27;;
38224;SDS011;24025;48.138;11.428;2024-02-28T12:09:22;54.65;;;22.85;;
38224;SDS011;24025;48.138;11.428;2024-02-28T12:12:02;49.60;;;22.75;;
38224;SDS011;24025;48.138;11.428;2024-02-28T12:14:37;48.53;;;21.85;;
38224;SDS011;24025;48.138;11.428;2024-02-28T12:17:14;54.00;;;22.73;;
38224;SDS011;24025;48.138;11.428;2024-02-28T12:19:46;49.10;;;22.90;;
38224;SDS011;24025;48.138;11.428;2024-02-28T12:22:18;49.13;;;21.92;;
38224;SDS011;24025;48.138;11.428;2024-02-28T12:24:49;47.47;;;23.20;;
38224;SDS011;24025;48.138;11.428;2024-02-28T12:27:21;48.05;;;22.65;;
38224;SDS011;24025;48.138;11.428;2024-02-28T12:29:53;47.92;;;22.55;;
38224;SDS011;24025;48.138;11.428;2024-02-28T12:32:24;45.72;;;21.60;;
38224;SDS011;24025;48.138;11.428;2024-02-28T12:34:56;51.35;;;21.83;;
38224;SDS011;24025;48.138;11.428;2024-02-28T12:37:27;48.08;;;22.48;;
38224;SDS011;24025;48.138;11.428;2024-02-28T12:39:59;60.80;;;28.35;;
38224;SDS011;24025;48.138;11.428;2024-02-28T12:42:31;47.38;;;23.13;;
38224;SDS011;24025;48.138;11.428;2024-02-28T12:45:03;46.78;;;22.27;;
38224;SDS011;24025;48.138;11.428;2024-02-28T12:47:35;46.38;;;20.55;;
38224;SDS011;24025;48.138;11.428;2024-02-28T12:50:08;44.15;;;21.35;;
38224;SDS011;24025;48.138;11.428;2024-02-28T12:52:40;41.35;;;20.60;;
38224;SDS011;24025;48.138;11.428;2024-02-28T12:55:12;45.60;;;19.50;;
38224;SDS011;24025;48.138;11.428;2024-02-28T12:57:45;42.50;;;20.10;;
38224;SDS011;24025;48.138;11.428;2024-02-28T13:00:17;40.90;;;20.08;;
38224;SDS011;24025;48.138;11.428;2024-02-28T13:02:50;45.00;;;20.10;;
38224;SDS011;24025;48.138;11.428;2024-02-28T13:05:21;38.65;;;18.20;;
38224;SDS011;24025;48.138;11.428;2024-02-28T13:07:53;39.28;;;20.15;;
38224;SDS011;24025;48.138;11.428;2024-02-28T13:10:25;43.17;;;21.40;;
38224;SDS011;24025;48.138;11.428;2024-02-28T13:12:57;45.67;;;19.85;;
38224;SDS011;24025;48.138;11.428;2024-02-28T13:15:28;44.88;;;21.33;;
38224;SDS011;24025;48.138;11.428;2024-02-28T13:18:00;43.40;;;20.95;;
38224;SDS011;24025;48.138;11.428;2024-02-28T13:20:33;46.13;;;20.77;;
38224;SDS011;24025;48.138;11.428;2024-02-28T13:23:05;42.35;;;20.70;;
38224;SDS011;24025;48.138;11.428;2024-02-28T13:25:37;49.38;;;20.40;;
38224;SDS011;24025;48.138;11.428;2024-02-28T13:28:08;51.17;;;20.02;;
38224;SDS011;24025;48.138;11.428;2024-02-28T13:30:40;39.70;;;19.65;;
38224;SDS011;24025;48.138;11.428;2024-02-28T13:33:12;40.90;;;19.77;;
38224;SDS011;24025;48.138;11.428;2024-02-28T13:35:43;39.33;;;19.27;;
38224;SDS011;24025;48.138;11.428;2024-02-28T13:38:15;41.45;;;18.80;;
38224;SDS011;24025;48.138;11.428;2024-02-28T13:40:48;43.25;;;19.65;;
38224;SDS011;24025;48.138;11.428;2024-02-28T13:43:21;44.08;;;19.40;;
38224;SDS011;24025;48.138;11.428;2024-02-28T13:45:52;43.63;;;19.00;;
38224;SDS011;24025;48.138;11.428;2024-02-28T13:48:26;41.95;;;20.30;;
38224;SDS011;24025;48.138;11.428;2024-02-28T13:51:05;44.03;;;19.33;;
38224;SDS011;24025;48.138;11.428;2024-02-28T13:53:37;40.63;;;19.83;;
38224;SDS011;24025;48.138;11.428;2024-02-28T13:56:08;40.22;;;18.77;;
38224;SDS011;24025;48.138;11.428;2024-02-28T13:58:40;41.28;;;19.58;;
38224;SDS011;24025;48.138;11.428;2024-02-28T14:01:23;38.92;;;19.05;;
38224;SDS011;24025;48.138;11.428;2024-02-28T14:03:55;38.28;;;19.00;;
38224;SDS011;24025;48.138;11.428;2024-02-28T14:06:26;41.75;;;17.60;;
38224;SDS011;24025;48.138;11.428;2024-02-28T14:11:30;41.70;;;18.67;;
38224;SDS011;24025;48.138;11.428;2024-02-28T14:14:02;40.90;;;18.08;;
38224;SDS011;24025;48.138;11.428;2024-02-28T14:16:34;41.58;;;19.90;;
38224;SDS011;24025;48.138;11.428;2024-02-28T14:19:05;40.55;;;19.42;;
38224;SDS011;24025;48.138;11.428;2024-02-28T14:21:37;40.42;;;19.15;;
38224;SDS011;24025;48.138;11.428;2024-02-28T14:24:08;40.25;;;18.75;;
38224;SDS011;24025;48.138;11.428;2024-02-28T14:26:40;38.97;;;18.42;;
38224;SDS011;24025;48.138;11.428;2024-02-28T14:29:12;41.22;;;18.92;;
38224;SDS011;24025;48.138;11.428;2024-02-28T14:31:43;39.22;;;18.90;;
38224;SDS011;24025;48.138;11.428;2024-02-28T14:34:15;40.92;;;20.70;;
38224;SDS011;24025;48.138;11.428;2024-02-28T14:36:47;39.72;;;20.10;;
38224;SDS011;24025;48.138;11.428;2024-02-28T14:39:20;42.47;;;19.25;;
38224;SDS011;24025;48.138;11.428;2024-02-28T14:41:51;39.13;;;19.05;;
38224;SDS011;24025;48.138;11.428;2024-02-28T14:44:23;35.40;;;17.63;;
38224;SDS011;24025;48.138;11.428;2024-02-28T14:46:55;34.63;;;17.63;;
38224;SDS011;24025;48.138;11.428;2024-02-28T14:49:28;36.97;;;18.73;;
38224;SDS011;24025;48.138;11.428;2024-02-28T14:52:00;43.00;;;18.75;;
38224;SDS011;24025;48.138;11.428;2024-02-28T14:54:32;37.88;;;18.02;;
38224;SDS011;24025;48.138;11.428;2024-02-28T14:57:04;41.63;;;19.13;;
38224;SDS011;24025;48.138;11.428;2024-02-28T14:59:36;41.03;;;18.10;;